sensor_id;sensor_type;location;lat;lon;timestamp;P1;durP1;ratioP1;P2;durP2;ratioP2
7383;SDS011;3733;47.994;8.820;2022-07-26T00:01:15;6.53;;;3.90;;
7383;SDS011;3733;47.994;8.820;2022-07-26T00:03:41;11.73;;;3.57;;
7383;SDS011;3733;47.994;8.820;2022-07-26T00:06:07;8.60;;;3.50;;
7383;SDS011;3733;47.994;8.820;2022-07-26T00:08:33;5.27;;;3.23;;
7383;SDS011;3733;47.994;8.820;2022-07-26T00:10:58;5.57;;;3.10;;
7383;SDS011;3733;47.994;8.820;2022-07-26T00:13:24;8.53;;;3.00;;
7383;SDS011;3733;47.994;8.820;2022-07-26T00:15:50;5.40;;;2.80;;
7383;SDS011;3733;47.994;8.820;2022-07-26T00:18:16;4.60;;;3.27;;
7383;SDS011;3733;47.994;8.820;2022-07-26T00:20:43;5.53;;;3.10;;
7383;SDS011;3733;47.994;8.820;2022-07-26T00:23:09;6.43;;;3.03;;
7383;SDS011;3733;47.994;8.820;2022-07-26T00:25:35;6.67;;;3.00;;
7383;SDS011;3733;47.994;8.820;2022-07-26T00:28:01;4.90;;;3.23;;
7383;SDS011;3733;47.994;8.820;2022-07-26T00:30:27;3.20;;;2.77;;
7383;SDS011;3733;47.994;8.820;2022-07-26T00:32:52;5.00;;;2.97;;
7383;SDS011;3733;47.994;8.820;2022-07-26T00:35:18;7.10;;;2.70;;
7383;SDS011;3733;47.994;8.820;2022-07-26T00:37:45;4.43;;;2.53;;
7383;SDS011;3733;47.994;8.820;2022-07-26T00:40:10;7.53;;;2.73;;
7383;SDS011;3733;47.994;8.820;2022-07-26T00:42:36;5.57;;;2.67;;
7383;SDS011;3733;47.994;8.820;2022-07-26T00:45:02;7.40;;;3.50;;
7383;SDS011;3733;47.994;8.820;2022-07-26T00:47:30;5.10;;;3.27;;
7383;SDS011;3733;47.994;8.820;2022-07-26T00:49:56;6.60;;;3.33;;
7383;SDS011;3733;47.994;8.820;2022-07-26T00:52:22;4.63;;;3.17;;
7383;SDS011;3733;47.994;8.820;2022-07-26T00:54:48;4.00;;;3.23;;
7383;SDS011;3733;47.994;8.820;2022-07-26T00:57:13;4.80;;;3.33;;
7383;SDS011;3733;47.994;8.820;2022-07-26T00:59:40;8.23;;;2.90;;
7383;SDS011;3733;47.994;8.820;2022-07-26T01:02:07;7.30;;;2.80;;
7383;SDS011;3733;47.994;8.820;2022-07-26T01:04:34;6.50;;;2.67;;
7383;SDS011;3733;47.994;8.820;2022-07-26T01:07:00;6.80;;;3.07;;
7383;SDS011;3733;47.994;8.820;2022-07-26T01:09:26;5.60;;;2.80;;
7383;SDS011;3733;47.994;8.820;2022-07-26T01:11:52;10.30;;;2.80;;
7383;SDS011;3733;47.994;8.820;2022-07-26T01:14:21;6.43;;;3.00;;
7383;SDS011;3733;47.994;8.820;2022-07-26T01:16:47;3.90;;;2.97;;
7383;SDS011;3733;47.994;8.820;2022-07-26T01:19:13;6.00;;;3.10;;
7383;SDS011;3733;47.994;8.820;2022-07-26T01:21:39;9.87;;;3.20;;
7383;SDS011;3733;47.994;8.820;2022-07-26T01:24:05;6.50;;;3.03;;
7383;SDS011;3733;47.994;8.820;2022-07-26T01:26:31;7.83;;;2.73;;
7383;SDS011;3733;47.994;8.820;2022-07-26T01:28:57;3.67;;;2.50;;
7383;SDS011;3733;47.994;8.820;2022-07-26T01:31:23;4.40;;;2.40;;
7383;SDS011;3733;47.994;8.820;2022-07-26T01:33:49;6.73;;;2.27;;
7383;SDS011;3733;47.994;8.820;2022-07-26T01:36:14;5.60;;;2.30;;
7383;SDS011;3733;47.994;8.820;2022-07-26T01:38:40;4.80;;;2.50;;
7383;SDS011;3733;47.994;8.820;2022-07-26T01:41:06;3.90;;;2.40;;
7383;SDS011;3733;47.994;8.820;2022-07-26T01:43:32;4.20;;;2.90;;
7383;SDS011;3733;47.994;8.820;2022-07-26T01:45:59;5.07;;;2.50;;
7383;SDS011;3733;47.994;8.820;2022-07-26T01:48:24;2.60;;;2.00;;
7383;SDS011;3733;47.994;8.820;2022-07-26T01:50:50;5.60;;;2.20;;
7383;SDS011;3733;47.994;8.820;2022-07-26T01:53:16;4.60;;;2.33;;
7383;SDS011;3733;47.994;8.820;2022-07-26T01:55:41;5.70;;;2.27;;
7383;SDS011;3733;47.994;8.820;2022-07-26T01:58:07;4.20;;;2.43;;
7383;SDS011;3733;47.994;8.820;2022-07-26T02:00:33;2.40;;;2.20;;
7383;SDS011;3733;47.994;8.820;2022-07-26T02:02:59;2.90;;;2.10;;
7383;SDS011;3733;47.994;8.820;2022-07-26T02:05:25;3.30;;;2.33;;
7383;SDS011;3733;47.994;8.820;2022-07-26T02:07:51;5.60;;;2.30;;
7383;SDS011;3733;47.994;8.820;2022-07-26T02:10:16;4.00;;;1.97;;
7383;SDS011;3733;47.994;8.820;2022-07-26T02:12:42;2.53;;;2.03;;
7383;SDS011;3733;47.994;8.820;2022-07-26T02:15:08;4.30;;;2.20;;
7383;SDS011;3733;47.994;8.820;2022-07-26T02:17:35;2.20;;;2.00;;
7383;SDS011;3733;47.994;8.820;2022-07-26T02:20:01;6.40;;;2.60;;
7383;SDS011;3733;47.994;8.820;2022-07-26T02:22:27;3.87;;;2.10;;
7383;SDS011;3733;47.994;8.820;2022-07-26T02:24:52;3.43;;;2.13;;
7383;SDS011;3733;47.994;8.820;2022-07-26T02:27:18;4.93;;;2.67;;
7383;SDS011;3733;47.994;8.820;2022-07-26T02:29:44;4.80;;;1.90;;
7383;SDS011;3733;47.994;8.820;2022-07-26T02:32:10;7.23;;;2.10;;
7383;SDS011;3733;47.994;8.820;2022-07-26T02:34:36;3.50;;;1.90;;
7383;SDS011;3733;47.994;8.820;2022-07-26T02:37:02;2.47;;;1.87;;
7383;SDS011;3733;47.994;8.820;2022-07-26T02:39:28;3.97;;;2.00;;
7383;SDS011;3733;47.994;8.820;2022-07-26T02:41:54;3.87;;;1.90;;
7383;SDS011;3733;47.994;8.820;2022-07-26T02:44:21;3.40;;;2.20;;
7383;SDS011;3733;47.994;8.820;2022-07-26T02:46:48;5.63;;;1.80;;
7383;SDS011;3733;47.994;8.820;2022-07-26T02:49:14;6.53;;;1.90;;
7383;SDS011;3733;47.994;8.820;2022-07-26T02:51:39;3.60;;;1.90;;
7383;SDS011;3733;47.994;8.820;2022-07-26T02:54:05;2.97;;;1.70;;
7383;SDS011;3733;47.994;8.820;2022-07-26T02:56:31;3.30;;;1.87;;
7383;SDS011;3733;47.994;8.820;2022-07-26T02:58:56;2.20;;;2.00;;
7383;SDS011;3733;47.994;8.820;2022-07-26T03:01:22;2.00;;;1.80;;
7383;SDS011;3733;47.994;8.820;2022-07-26T03:03:48;5.00;;;1.93;;
7383;SDS011;3733;47.994;8.820;2022-07-26T03:06:13;4.47;;;1.93;;
7383;SDS011;3733;47.994;8.820;2022-07-26T03:08:39;4.60;;;1.87;;
7383;SDS011;3733;47.994;8.820;2022-07-26T03:11:05;2.73;;;1.40;;
7383;SDS011;3733;47.994;8.820;2022-07-26T03:13:30;2.00;;;1.60;;
7383;SDS011;3733;47.994;8.820;2022-07-26T03:15:56;1.80;;;1.53;;
7383;SDS011;3733;47.994;8.820;2022-07-26T03:18:22;3.83;;;2.13;;
7383;SDS011;3733;47.994;8.820;2022-07-26T03:20:48;5.77;;;1.80;;
7383;SDS011;3733;47.994;8.820;2022-07-26T03:23:14;1.90;;;1.70;;
7383;SDS011;3733;47.994;8.820;2022-07-26T03:25:40;2.67;;;1.90;;
7383;SDS011;3733;47.994;8.820;2022-07-26T03:28:06;2.73;;;1.87;;
7383;SDS011;3733;47.994;8.820;2022-07-26T03:30:31;2.30;;;1.57;;
7383;SDS011;3733;47.994;8.820;2022-07-26T03:32:57;2.73;;;1.73;;
7383;SDS011;3733;47.994;8.820;2022-07-26T03:35:23;4.93;;;1.77;;
7383;SDS011;3733;47.994;8.820;2022-07-26T03:37:49;4.00;;;2.03;;
7383;SDS011;3733;47.994;8.820;2022-07-26T03:40:15;2.33;;;1.70;;
7383;SDS011;3733;47.994;8.820;2022-07-26T03:42:41;2.77;;;1.77;;
7383;SDS011;3733;47.994;8.820;2022-07-26T03:45:07;2.70;;;1.67;;
7383;SDS011;3733;47.994;8.820;2022-07-26T03:47:33;2.70;;;1.90;;
7383;SDS011;3733;47.994;8.820;2022-07-26T03:49:59;2.50;;;1.50;;
7383;SDS011;3733;47.994;8.820;2022-07-26T03:52:24;4.03;;;1.80;;
7383;SDS011;3733;47.994;8.820;2022-07-26T03:54:50;2.00;;;1.67;;
7383;SDS011;3733;47.994;8.820;2022-07-26T03:57:15;4.73;;;1.70;;
7383;SDS011;3733;47.994;8.820;2022-07-26T03:59:41;2.20;;;1.43;;
7383;SDS011;3733;47.994;8.820;2022-07-26T04:02:07;4.57;;;2.20;;
7383;SDS011;3733;47.994;8.820;2022-07-26T04:04:32;2.03;;;1.87;;
7383;SDS011;3733;47.994;8.820;2022-07-26T04:06:58;3.83;;;1.80;;
7383;SDS011;3733;47.994;8.820;2022-07-26T04:09:23;2.00;;;1.80;;
7383;SDS011;3733;47.994;8.820;2022-07-26T04:11:49;2.43;;;1.90;;
7383;SDS011;3733;47.994;8.820;2022-07-26T04:14:15;1.77;;;1.67;;
7383;SDS011;3733;47.994;8.820;2022-07-26T04:16:40;2.60;;;2.00;;
7383;SDS011;3733;47.994;8.820;2022-07-26T04:19:06;3.10;;;1.63;;
7383;SDS011;3733;47.994;8.820;2022-07-26T04:21:32;1.47;;;1.30;;
7383;SDS011;3733;47.994;8.820;2022-07-26T04:23:57;3.23;;;2.03;;
7383;SDS011;3733;47.994;8.820;2022-07-26T04:26:23;1.80;;;1.70;;
7383;SDS011;3733;47.994;8.820;2022-07-26T04:28:49;3.10;;;1.70;;
7383;SDS011;3733;47.994;8.820;2022-07-26T04:31:14;1.90;;;1.63;;
7383;SDS011;3733;47.994;8.820;2022-07-26T04:33:40;3.87;;;2.40;;
7383;SDS011;3733;47.994;8.820;2022-07-26T04:36:06;3.30;;;2.20;;
7383;SDS011;3733;47.994;8.820;2022-07-26T04:38:31;3.03;;;2.10;;
7383;SDS011;3733;47.994;8.820;2022-07-26T04:40:57;5.17;;;2.00;;
7383;SDS011;3733;47.994;8.820;2022-07-26T04:43:23;2.40;;;1.83;;
7383;SDS011;3733;47.994;8.820;2022-07-26T04:45:49;1.93;;;1.77;;
7383;SDS011;3733;47.994;8.820;2022-07-26T04:48:15;4.97;;;2.00;;
7383;SDS011;3733;47.994;8.820;2022-07-26T04:50:41;2.37;;;1.70;;
7383;SDS011;3733;47.994;8.820;2022-07-26T04:53:08;4.27;;;1.97;;
7383;SDS011;3733;47.994;8.820;2022-07-26T04:55:35;2.90;;;1.90;;
7383;SDS011;3733;47.994;8.820;2022-07-26T04:58:01;5.53;;;1.80;;
7383;SDS011;3733;47.994;8.820;2022-07-26T05:00:27;8.43;;;1.90;;
7383;SDS011;3733;47.994;8.820;2022-07-26T05:02:54;2.40;;;1.80;;
7383;SDS011;3733;47.994;8.820;2022-07-26T05:05:22;1.70;;;1.60;;
7383;SDS011;3733;47.994;8.820;2022-07-26T05:07:50;1.67;;;1.57;;
7383;SDS011;3733;47.994;8.820;2022-07-26T05:10:18;2.00;;;1.90;;
7383;SDS011;3733;47.994;8.820;2022-07-26T05:12:45;2.63;;;1.87;;
7383;SDS011;3733;47.994;8.820;2022-07-26T05:15:12;3.90;;;2.53;;
7383;SDS011;3733;47.994;8.820;2022-07-26T05:17:38;3.03;;;2.10;;
7383;SDS011;3733;47.994;8.820;2022-07-26T05:20:06;3.07;;;1.83;;
7383;SDS011;3733;47.994;8.820;2022-07-26T05:22:33;2.80;;;2.07;;
7383;SDS011;3733;47.994;8.820;2022-07-26T05:24:59;4.20;;;1.70;;
7383;SDS011;3733;47.994;8.820;2022-07-26T05:27:25;3.97;;;2.03;;
7383;SDS011;3733;47.994;8.820;2022-07-26T05:29:51;2.47;;;1.97;;
7383;SDS011;3733;47.994;8.820;2022-07-26T05:32:16;3.03;;;2.10;;
7383;SDS011;3733;47.994;8.820;2022-07-26T05:34:42;3.50;;;1.97;;
7383;SDS011;3733;47.994;8.820;2022-07-26T05:37:08;5.23;;;1.77;;
7383;SDS011;3733;47.994;8.820;2022-07-26T05:39:34;7.63;;;2.97;;
7383;SDS011;3733;47.994;8.820;2022-07-26T05:41:59;5.13;;;1.83;;
7383;SDS011;3733;47.994;8.820;2022-07-26T05:44:25;4.90;;;1.80;;
7383;SDS011;3733;47.994;8.820;2022-07-26T05:46:51;3.50;;;1.83;;
7383;SDS011;3733;47.994;8.820;2022-07-26T05:49:16;2.43;;;1.97;;
7383;SDS011;3733;47.994;8.820;2022-07-26T05:51:42;4.27;;;2.10;;
7383;SDS011;3733;47.994;8.820;2022-07-26T05:54:07;2.27;;;1.80;;
7383;SDS011;3733;47.994;8.820;2022-07-26T05:56:33;4.83;;;3.00;;
7383;SDS011;3733;47.994;8.820;2022-07-26T05:58:59;1.70;;;1.60;;
7383;SDS011;3733;47.994;8.820;2022-07-26T06:01:25;2.90;;;2.43;;
7383;SDS011;3733;47.994;8.820;2022-07-26T06:03:51;6.73;;;2.57;;
7383;SDS011;3733;47.994;8.820;2022-07-26T06:06:16;3.30;;;2.33;;
7383;SDS011;3733;47.994;8.820;2022-07-26T06:08:42;3.63;;;1.90;;
7383;SDS011;3733;47.994;8.820;2022-07-26T06:11:07;2.30;;;2.10;;
7383;SDS011;3733;47.994;8.820;2022-07-26T06:13:33;2.00;;;1.80;;
7383;SDS011;3733;47.994;8.820;2022-07-26T06:15:59;3.90;;;2.57;;
7383;SDS011;3733;47.994;8.820;2022-07-26T06:18:25;4.03;;;2.13;;
7383;SDS011;3733;47.994;8.820;2022-07-26T06:20:50;3.30;;;2.10;;
7383;SDS011;3733;47.994;8.820;2022-07-26T06:23:16;2.10;;;2.00;;
7383;SDS011;3733;47.994;8.820;2022-07-26T06:25:42;4.07;;;2.30;;
7383;SDS011;3733;47.994;8.820;2022-07-26T06:28:08;6.27;;;2.20;;
7383;SDS011;3733;47.994;8.820;2022-07-26T06:30:38;3.30;;;2.07;;
7383;SDS011;3733;47.994;8.820;2022-07-26T06:33:04;4.83;;;2.23;;
7383;SDS011;3733;47.994;8.820;2022-07-26T06:35:31;3.07;;;2.30;;
7383;SDS011;3733;47.994;8.820;2022-07-26T06:37:59;3.80;;;2.10;;
7383;SDS011;3733;47.994;8.820;2022-07-26T06:40:25;3.50;;;2.60;;
7383;SDS011;3733;47.994;8.820;2022-07-26T06:42:50;7.87;;;2.60;;
7383;SDS011;3733;47.994;8.820;2022-07-26T06:45:16;6.07;;;2.10;;
7383;SDS011;3733;47.994;8.820;2022-07-26T06:47:42;5.10;;;2.40;;
7383;SDS011;3733;47.994;8.820;2022-07-26T06:50:08;3.23;;;2.50;;
7383;SDS011;3733;47.994;8.820;2022-07-26T06:52:34;3.80;;;2.50;;
7383;SDS011;3733;47.994;8.820;2022-07-26T06:55:00;3.20;;;1.93;;
7383;SDS011;3733;47.994;8.820;2022-07-26T06:57:26;1.87;;;1.77;;
7383;SDS011;3733;47.994;8.820;2022-07-26T06:59:52;3.30;;;2.67;;
7383;SDS011;3733;47.994;8.820;2022-07-26T07:02:18;2.97;;;2.20;;
7383;SDS011;3733;47.994;8.820;2022-07-26T07:04:44;3.20;;;2.30;;
7383;SDS011;3733;47.994;8.820;2022-07-26T07:07:09;3.63;;;2.20;;
7383;SDS011;3733;47.994;8.820;2022-07-26T07:09:35;3.80;;;3.00;;
7383;SDS011;3733;47.994;8.820;2022-07-26T07:12:04;2.20;;;2.00;;
7383;SDS011;3733;47.994;8.820;2022-07-26T07:14:31;4.00;;;2.73;;
7383;SDS011;3733;47.994;8.820;2022-07-26T07:16:57;6.90;;;2.60;;
7383;SDS011;3733;47.994;8.820;2022-07-26T07:19:23;2.60;;;2.13;;
7383;SDS011;3733;47.994;8.820;2022-07-26T07:21:49;6.87;;;2.97;;
7383;SDS011;3733;47.994;8.820;2022-07-26T07:24:16;2.57;;;2.20;;
7383;SDS011;3733;47.994;8.820;2022-07-26T07:26:42;2.60;;;2.40;;
7383;SDS011;3733;47.994;8.820;2022-07-26T07:29:08;4.10;;;2.70;;
7383;SDS011;3733;47.994;8.820;2022-07-26T07:31:36;4.10;;;2.50;;
7383;SDS011;3733;47.994;8.820;2022-07-26T07:34:02;7.70;;;2.50;;
7383;SDS011;3733;47.994;8.820;2022-07-26T07:36:28;8.30;;;2.40;;
7383;SDS011;3733;47.994;8.820;2022-07-26T07:38:53;3.30;;;2.57;;
7383;SDS011;3733;47.994;8.820;2022-07-26T07:41:19;2.97;;;2.57;;
7383;SDS011;3733;47.994;8.820;2022-07-26T07:43:45;2.97;;;2.57;;
7383;SDS011;3733;47.994;8.820;2022-07-26T07:46:10;2.27;;;2.07;;
7383;SDS011;3733;47.994;8.820;2022-07-26T07:48:37;4.93;;;2.50;;
7383;SDS011;3733;47.994;8.820;2022-07-26T07:51:05;8.40;;;2.47;;
7383;SDS011;3733;47.994;8.820;2022-07-26T07:53:33;5.10;;;2.60;;
7383;SDS011;3733;47.994;8.820;2022-07-26T07:55:59;2.97;;;2.50;;
7383;SDS011;3733;47.994;8.820;2022-07-26T07:58:25;3.10;;;2.73;;
7383;SDS011;3733;47.994;8.820;2022-07-26T08:00:51;4.77;;;2.90;;
7383;SDS011;3733;47.994;8.820;2022-07-26T08:03:16;10.00;;;2.80;;
7383;SDS011;3733;47.994;8.820;2022-07-26T08:05:42;6.40;;;2.47;;
7383;SDS011;3733;47.994;8.820;2022-07-26T08:08:08;3.07;;;2.30;;
7383;SDS011;3733;47.994;8.820;2022-07-26T08:10:33;6.90;;;2.80;;
7383;SDS011;3733;47.994;8.820;2022-07-26T08:12:59;3.77;;;2.50;;
7383;SDS011;3733;47.994;8.820;2022-07-26T08:15:25;2.53;;;2.23;;
7383;SDS011;3733;47.994;8.820;2022-07-26T08:17:51;8.77;;;2.70;;
7383;SDS011;3733;47.994;8.820;2022-07-26T08:20:17;4.30;;;2.57;;
7383;SDS011;3733;47.994;8.820;2022-07-26T08:22:44;2.60;;;2.40;;
7383;SDS011;3733;47.994;8.820;2022-07-26T08:25:10;5.23;;;2.23;;
7383;SDS011;3733;47.994;8.820;2022-07-26T08:27:36;3.87;;;2.20;;
7383;SDS011;3733;47.994;8.820;2022-07-26T08:30:02;4.77;;;2.40;;
7383;SDS011;3733;47.994;8.820;2022-07-26T08:32:28;3.67;;;2.13;;
7383;SDS011;3733;47.994;8.820;2022-07-26T08:34:54;3.40;;;2.50;;
7383;SDS011;3733;47.994;8.820;2022-07-26T08:37:19;4.50;;;2.57;;
7383;SDS011;3733;47.994;8.820;2022-07-26T08:39:48;4.43;;;2.23;;
7383;SDS011;3733;47.994;8.820;2022-07-26T08:42:17;2.87;;;2.40;;
7383;SDS011;3733;47.994;8.820;2022-07-26T08:44:44;3.60;;;2.40;;
7383;SDS011;3733;47.994;8.820;2022-07-26T08:47:15;2.87;;;2.17;;
7383;SDS011;3733;47.994;8.820;2022-07-26T08:49:43;3.80;;;2.30;;
7383;SDS011;3733;47.994;8.820;2022-07-26T08:52:09;2.60;;;2.10;;
7383;SDS011;3733;47.994;8.820;2022-07-26T08:54:41;6.43;;;2.40;;
7383;SDS011;3733;47.994;8.820;2022-07-26T08:57:08;2.17;;;2.00;;
7383;SDS011;3733;47.994;8.820;2022-07-26T08:59:34;3.10;;;2.47;;
7383;SDS011;3733;47.994;8.820;2022-07-26T09:02:02;4.03;;;2.27;;
7383;SDS011;3733;47.994;8.820;2022-07-26T09:04:33;3.00;;;2.20;;
7383;SDS011;3733;47.994;8.820;2022-07-26T09:07:04;8.20;;;2.17;;
7383;SDS011;3733;47.994;8.820;2022-07-26T09:09:31;3.83;;;2.60;;
7383;SDS011;3733;47.994;8.820;2022-07-26T09:12:00;5.80;;;2.00;;
7383;SDS011;3733;47.994;8.820;2022-07-26T09:14:38;6.83;;;2.30;;
7383;SDS011;3733;47.994;8.820;2022-07-26T09:17:04;3.80;;;1.80;;
7383;SDS011;3733;47.994;8.820;2022-07-26T09:19:30;2.30;;;2.10;;
7383;SDS011;3733;47.994;8.820;2022-07-26T09:21:56;7.93;;;2.00;;
7383;SDS011;3733;47.994;8.820;2022-07-26T09:24:35;2.03;;;1.83;;
7383;SDS011;3733;47.994;8.820;2022-07-26T09:27:06;18.00;;;2.50;;
7383;SDS011;3733;47.994;8.820;2022-07-26T09:32:13;2.13;;;2.00;;
7383;SDS011;3733;47.994;8.820;2022-07-26T09:34:41;3.60;;;2.50;;
7383;SDS011;3733;47.994;8.820;2022-07-26T09:37:12;3.97;;;2.40;;
7383;SDS011;3733;47.994;8.820;2022-07-26T09:39:57;8.47;;;1.87;;
7383;SDS011;3733;47.994;8.820;2022-07-26T09:42:25;5.50;;;2.07;;
7383;SDS011;3733;47.994;8.820;2022-07-26T09:44:52;5.70;;;1.93;;
7383;SDS011;3733;47.994;8.820;2022-07-26T09:47:18;2.67;;;2.10;;
7383;SDS011;3733;47.994;8.820;2022-07-26T09:49:44;11.47;;;2.23;;
7383;SDS011;3733;47.994;8.820;2022-07-26T09:52:14;2.23;;;1.83;;
7383;SDS011;3733;47.994;8.820;2022-07-26T09:54:42;4.33;;;2.60;;
7383;SDS011;3733;47.994;8.820;2022-07-26T09:57:10;3.63;;;1.50;;
7383;SDS011;3733;47.994;8.820;2022-07-26T09:59:38;4.50;;;1.80;;
7383;SDS011;3733;47.994;8.820;2022-07-26T10:02:04;6.83;;;2.00;;
7383;SDS011;3733;47.994;8.820;2022-07-26T10:04:30;5.00;;;1.70;;
7383;SDS011;3733;47.994;8.820;2022-07-26T10:06:55;4.87;;;1.97;;
7383;SDS011;3733;47.994;8.820;2022-07-26T10:09:29;8.00;;;1.83;;
7383;SDS011;3733;47.994;8.820;2022-07-26T10:12:11;7.30;;;1.90;;
7383;SDS011;3733;47.994;8.820;2022-07-26T10:14:48;3.53;;;2.40;;
7383;SDS011;3733;47.994;8.820;2022-07-26T10:20:36;3.67;;;1.90;;
7383;SDS011;3733;47.994;8.820;2022-07-26T10:23:00;11.83;;;2.33;;
7383;SDS011;3733;47.994;8.820;2022-07-26T10:27:52;2.00;;;1.70;;
7383;SDS011;3733;47.994;8.820;2022-07-26T10:30:20;3.50;;;2.10;;
7383;SDS011;3733;47.994;8.820;2022-07-26T10:35:35;2.77;;;2.07;;
7383;SDS011;3733;47.994;8.820;2022-07-26T10:38:09;2.00;;;1.77;;
7383;SDS011;3733;47.994;8.820;2022-07-26T10:41:00;2.07;;;1.87;;
7383;SDS011;3733;47.994;8.820;2022-07-26T10:43:27;3.70;;;2.00;;
7383;SDS011;3733;47.994;8.820;2022-07-26T10:51:42;3.27;;;1.50;;
7383;SDS011;3733;47.994;8.820;2022-07-26T10:54:08;3.37;;;1.70;;
7383;SDS011;3733;47.994;8.820;2022-07-26T10:56:35;6.77;;;1.77;;
7383;SDS011;3733;47.994;8.820;2022-07-26T10:59:03;3.30;;;1.70;;
7383;SDS011;3733;47.994;8.820;2022-07-26T11:01:40;3.97;;;1.90;;
7383;SDS011;3733;47.994;8.820;2022-07-26T11:04:19;3.40;;;1.73;;
7383;SDS011;3733;47.994;8.820;2022-07-26T11:06:46;1.90;;;1.70;;
7383;SDS011;3733;47.994;8.820;2022-07-26T11:09:12;5.20;;;1.90;;
7383;SDS011;3733;47.994;8.820;2022-07-26T11:11:37;2.80;;;1.77;;
7383;SDS011;3733;47.994;8.820;2022-07-26T11:14:07;2.13;;;1.50;;
7383;SDS011;3733;47.994;8.820;2022-07-26T11:16:35;1.63;;;1.50;;
7383;SDS011;3733;47.994;8.820;2022-07-26T11:19:12;5.07;;;1.53;;
7383;SDS011;3733;47.994;8.820;2022-07-26T11:21:38;3.00;;;1.87;;
7383;SDS011;3733;47.994;8.820;2022-07-26T11:24:05;3.13;;;1.90;;
7383;SDS011;3733;47.994;8.820;2022-07-26T11:26:31;3.20;;;1.60;;
7383;SDS011;3733;47.994;8.820;2022-07-26T11:29:07;4.47;;;1.50;;
7383;SDS011;3733;47.994;8.820;2022-07-26T11:34:42;12.23;;;1.73;;
7383;SDS011;3733;47.994;8.820;2022-07-26T11:37:02;2.70;;;1.57;;
7383;SDS011;3733;47.994;8.820;2022-07-26T11:39:30;2.03;;;1.50;;
7383;SDS011;3733;47.994;8.820;2022-07-26T11:42:00;3.23;;;1.73;;
7383;SDS011;3733;47.994;8.820;2022-07-26T11:44:30;3.70;;;1.60;;
7383;SDS011;3733;47.994;8.820;2022-07-26T11:46:56;1.90;;;1.70;;
7383;SDS011;3733;47.994;8.820;2022-07-26T11:49:23;2.03;;;1.53;;
7383;SDS011;3733;47.994;8.820;2022-07-26T11:54:20;3.70;;;1.80;;
7383;SDS011;3733;47.994;8.820;2022-07-26T11:59:16;4.20;;;1.57;;
7383;SDS011;3733;47.994;8.820;2022-07-26T12:01:46;3.67;;;1.80;;
7383;SDS011;3733;47.994;8.820;2022-07-26T12:04:22;1.60;;;1.30;;
7383;SDS011;3733;47.994;8.820;2022-07-26T12:06:53;1.57;;;1.47;;
7383;SDS011;3733;47.994;8.820;2022-07-26T12:12:05;4.53;;;1.50;;
7383;SDS011;3733;47.994;8.820;2022-07-26T12:14:42;3.10;;;1.53;;
7383;SDS011;3733;47.994;8.820;2022-07-26T12:19:40;3.83;;;1.50;;
7383;SDS011;3733;47.994;8.820;2022-07-26T12:22:14;1.60;;;1.50;;
7383;SDS011;3733;47.994;8.820;2022-07-26T12:24:45;1.57;;;1.20;;
7383;SDS011;3733;47.994;8.820;2022-07-26T12:32:15;4.57;;;1.50;;
7383;SDS011;3733;47.994;8.820;2022-07-26T12:37:24;3.53;;;1.47;;
7383;SDS011;3733;47.994;8.820;2022-07-26T12:40:01;2.40;;;1.43;;
7383;SDS011;3733;47.994;8.820;2022-07-26T12:42:34;10.50;;;1.70;;
7383;SDS011;3733;47.994;8.820;2022-07-26T12:45:08;3.33;;;1.53;;
7383;SDS011;3733;47.994;8.820;2022-07-26T12:47:35;3.10;;;1.40;;
7383;SDS011;3733;47.994;8.820;2022-07-26T12:50:03;1.53;;;1.43;;
7383;SDS011;3733;47.994;8.820;2022-07-26T12:52:30;1.37;;;1.27;;
7383;SDS011;3733;47.994;8.820;2022-07-26T12:54:57;3.00;;;1.40;;
7383;SDS011;3733;47.994;8.820;2022-07-26T12:57:23;3.03;;;1.50;;
7383;SDS011;3733;47.994;8.820;2022-07-26T12:59:49;2.13;;;1.60;;
7383;SDS011;3733;47.994;8.820;2022-07-26T13:02:16;1.70;;;1.60;;
7383;SDS011;3733;47.994;8.820;2022-07-26T13:04:42;2.77;;;1.63;;
7383;SDS011;3733;47.994;8.820;2022-07-26T13:07:08;2.83;;;1.60;;
7383;SDS011;3733;47.994;8.820;2022-07-26T13:09:34;2.93;;;1.23;;
7383;SDS011;3733;47.994;8.820;2022-07-26T13:12:00;4.40;;;1.27;;
7383;SDS011;3733;47.994;8.820;2022-07-26T13:14:27;2.30;;;1.40;;
7383;SDS011;3733;47.994;8.820;2022-07-26T13:16:53;1.70;;;1.23;;
7383;SDS011;3733;47.994;8.820;2022-07-26T13:19:19;1.50;;;1.37;;
7383;SDS011;3733;47.994;8.820;2022-07-26T13:21:45;2.30;;;1.57;;
7383;SDS011;3733;47.994;8.820;2022-07-26T13:24:11;2.40;;;1.27;;
7383;SDS011;3733;47.994;8.820;2022-07-26T13:26:36;5.00;;;1.70;;
7383;SDS011;3733;47.994;8.820;2022-07-26T13:29:02;1.60;;;1.50;;
7383;SDS011;3733;47.994;8.820;2022-07-26T13:31:28;1.50;;;1.40;;
7383;SDS011;3733;47.994;8.820;2022-07-26T13:33:53;2.00;;;1.53;;
7383;SDS011;3733;47.994;8.820;2022-07-26T13:36:19;2.67;;;1.50;;
7383;SDS011;3733;47.994;8.820;2022-07-26T13:38:45;2.10;;;1.50;;
7383;SDS011;3733;47.994;8.820;2022-07-26T13:41:10;3.07;;;1.20;;
7383;SDS011;3733;47.994;8.820;2022-07-26T13:43:36;1.92;;;1.10;;
7383;SDS011;3733;47.994;8.820;2022-07-26T13:46:02;2.57;;;1.40;;
7383;SDS011;3733;47.994;8.820;2022-07-26T13:48:27;2.33;;;1.57;;
7383;SDS011;3733;47.994;8.820;2022-07-26T13:50:53;1.48;;;1.35;;
7383;SDS011;3733;47.994;8.820;2022-07-26T13:53:21;1.97;;;1.30;;
7383;SDS011;3733;47.994;8.820;2022-07-26T13:55:47;4.67;;;1.03;;
7383;SDS011;3733;47.994;8.820;2022-07-26T13:58:13;2.07;;;1.37;;
7383;SDS011;3733;47.994;8.820;2022-07-26T14:00:39;5.10;;;1.20;;
7383;SDS011;3733;47.994;8.820;2022-07-26T14:03:05;2.90;;;1.10;;
7383;SDS011;3733;47.994;8.820;2022-07-26T14:05:30;4.50;;;1.73;;
7383;SDS011;3733;47.994;8.820;2022-07-26T14:07:56;2.00;;;1.00;;
7383;SDS011;3733;47.994;8.820;2022-07-26T14:10:22;2.30;;;1.13;;
7383;SDS011;3733;47.994;8.820;2022-07-26T14:12:48;2.05;;;1.27;;
7383;SDS011;3733;47.994;8.820;2022-07-26T14:15:15;4.60;;;1.50;;
7383;SDS011;3733;47.994;8.820;2022-07-26T14:17:41;1.63;;;1.50;;
7383;SDS011;3733;47.994;8.820;2022-07-26T14:20:08;3.63;;;1.35;;
7383;SDS011;3733;47.994;8.820;2022-07-26T14:22:34;3.17;;;1.17;;
7383;SDS011;3733;47.994;8.820;2022-07-26T14:25:00;3.40;;;1.50;;
7383;SDS011;3733;47.994;8.820;2022-07-26T14:27:26;2.50;;;1.50;;
7383;SDS011;3733;47.994;8.820;2022-07-26T14:29:51;3.73;;;1.40;;
7383;SDS011;3733;47.994;8.820;2022-07-26T14:32:17;3.17;;;1.30;;
7383;SDS011;3733;47.994;8.820;2022-07-26T14:34:43;3.60;;;1.43;;
7383;SDS011;3733;47.994;8.820;2022-07-26T14:37:09;5.68;;;1.50;;
7383;SDS011;3733;47.994;8.820;2022-07-26T14:39:35;2.10;;;1.40;;
7383;SDS011;3733;47.994;8.820;2022-07-26T14:42:00;1.45;;;1.33;;
7383;SDS011;3733;47.994;8.820;2022-07-26T14:44:26;2.30;;;1.23;;
7383;SDS011;3733;47.994;8.820;2022-07-26T14:46:52;2.67;;;1.40;;
7383;SDS011;3733;47.994;8.820;2022-07-26T14:49:18;3.13;;;1.20;;
7383;SDS011;3733;47.994;8.820;2022-07-26T14:51:44;2.28;;;1.30;;
7383;SDS011;3733;47.994;8.820;2022-07-26T14:54:13;4.72;;;1.30;;
7383;SDS011;3733;47.994;8.820;2022-07-26T14:56:40;3.22;;;1.15;;
7383;SDS011;3733;47.994;8.820;2022-07-26T14:59:05;1.50;;;1.20;;
7383;SDS011;3733;47.994;8.820;2022-07-26T15:01:31;1.30;;;1.10;;
7383;SDS011;3733;47.994;8.820;2022-07-26T15:03:57;4.22;;;1.38;;
7383;SDS011;3733;47.994;8.820;2022-07-26T15:06:23;4.40;;;1.42;;
7383;SDS011;3733;47.994;8.820;2022-07-26T15:08:49;6.47;;;1.38;;
7383;SDS011;3733;47.994;8.820;2022-07-26T15:11:14;3.83;;;1.27;;
7383;SDS011;3733;47.994;8.820;2022-07-26T15:13:41;1.45;;;1.30;;
7383;SDS011;3733;47.994;8.820;2022-07-26T15:16:06;1.52;;;1.42;;
7383;SDS011;3733;47.994;8.820;2022-07-26T15:18:32;4.00;;;1.30;;
7383;SDS011;3733;47.994;8.820;2022-07-26T15:20:58;4.90;;;1.50;;
7383;SDS011;3733;47.994;8.820;2022-07-26T15:23:23;1.20;;;1.10;;
7383;SDS011;3733;47.994;8.820;2022-07-26T15:25:50;1.20;;;1.10;;
7383;SDS011;3733;47.994;8.820;2022-07-26T15:28:16;1.80;;;1.30;;
7383;SDS011;3733;47.994;8.820;2022-07-26T15:30:41;3.92;;;1.30;;
7383;SDS011;3733;47.994;8.820;2022-07-26T15:33:07;4.38;;;1.55;;
7383;SDS011;3733;47.994;8.820;2022-07-26T15:35:33;6.85;;;1.33;;
7383;SDS011;3733;47.994;8.820;2022-07-26T15:38:03;1.45;;;1.27;;
7383;SDS011;3733;47.994;8.820;2022-07-26T15:40:28;4.32;;;1.33;;
7383;SDS011;3733;47.994;8.820;2022-07-26T15:42:54;1.55;;;1.30;;
7383;SDS011;3733;47.994;8.820;2022-07-26T15:45:20;3.05;;;1.33;;
7383;SDS011;3733;47.994;8.820;2022-07-26T15:47:46;1.52;;;1.27;;
7383;SDS011;3733;47.994;8.820;2022-07-26T15:50:12;5.05;;;1.35;;